Time;durP1;ratioP1;P1;durP2;ratioP2;P2;SDS_P1;SDS_P2;PMS_P1;PMS_P2;Temp;Humidity;BMP_temperature;BMP_pressure;BME280_temperature;BME280_humidity;BME280_pressure;Samples;Min_cycle;Max_cycle;Signal;HPM_P1;HPM_P2
2022/05/11 00:00:07;;;;;;;10.83;3.73;;;;;;;12.41;40.70;100004.06;4968371;28;20219;-67
2022/05/11 00:02:33;;;;;;;14.33;3.80;;;;;;;12.36;40.48;100009.03;4967521;28;20220;-66
2022/05/11 00:05:00;;;;;;;13.40;3.97;;;;;;;12.25;41.72;100002.22;4971522;28;21108;-68
2022/05/11 00:07:27;;;;;;;11.17;3.50;;;;;;;12.29;41.14;100000.88;4932415;28;20227;-68
2022/05/11 00:09:53;;;;;;;10.53;3.87;;;;;;;12.20;41.89;100005.38;4959354;28;20231;-67
2022/05/11 00:12:20;;;;;;;9.50;3.30;;;;;;;12.27;41.32;99991.34;4949417;28;20314;-69
2022/05/11 00:14:46;;;;;;;11.77;3.97;;;;;;;12.14;42.09;99992.69;4971550;28;20342;-68
2022/05/11 00:17:13;;;;;;;10.73;3.80;;;;;;;12.19;41.60;99997.53;4971837;28;20719;-68
2022/05/11 00:19:39;;;;;;;10.87;3.73;;;;;;;12.19;41.68;99990.34;4972353;28;20236;-66
2022/05/11 00:22:06;;;;;;;11.27;4.00;;;;;;;12.20;42.72;99997.38;4970877;28;20700;-68
2022/05/11 00:24:32;;;;;;;13.37;3.97;;;;;;;12.14;42.89;99997.19;4954563;28;20233;-66
2022/05/11 00:27:00;;;;;;;8.03;3.57;;;;;;;12.10;42.83;99983.34;4956900;28;20335;-68
2022/05/11 00:29:27;;;;;;;9.37;3.57;;;;;;;12.10;42.74;99983.34;4956131;28;20321;-51
2022/05/11 00:31:54;;;;;;;8.40;3.80;;;;;;;12.13;43.00;99985.69;4971193;28;20231;-68
2022/05/11 00:34:21;;;;;;;11.70;3.90;;;;;;;12.11;43.02;99963.69;4970051;28;20219;-69
2022/05/11 00:36:47;;;;;;;13.77;3.93;;;;;;;12.09;42.35;99952.34;4971811;28;20961;-68
2022/05/11 00:39:14;;;;;;;13.07;3.87;;;;;;;12.03;43.65;99950.34;4970232;28;21433;-66
2022/05/11 00:41:41;;;;;;;13.67;3.83;;;;;;;11.93;43.36;99947.00;4972061;28;20621;-69
2022/05/11 00:44:09;;;;;;;11.87;3.80;;;;;;;11.94;43.53;99948.66;4954673;28;20212;-68
2022/05/11 00:46:43;;;;;;;9.50;3.70;;;;;;;11.96;43.65;99952.88;4968955;28;20334;-68
2022/05/11 00:49:34;;;;;;;8.83;3.43;;;;;;;11.98;43.69;99955.34;4952549;28;20215;-68
2022/05/11 00:52:08;;;;;;;9.97;3.93;;;;;;;12.04;43.95;99954.69;4954598;28;22891;-67
2022/05/11 00:54:39;;;;;;;10.40;3.37;;;;;;;12.00;44.01;99953.34;4952961;28;20227;-68
2022/05/11 00:57:11;;;;;;;12.80;3.97;;;;;;;11.93;43.76;99955.84;4934031;28;20247;-69
2022/05/11 00:59:41;;;;;;;12.10;3.67;;;;;;;11.90;44.89;99948.19;4967664;28;20249;-68
2022/05/11 01:02:08;;;;;;;10.37;3.83;;;;;;;11.79;44.67;99951.13;4967555;28;20314;-67
2022/05/11 01:04:38;;;;;;;12.57;3.83;;;;;;;11.83;45.11;99947.16;4968654;28;20228;-68
2022/05/11 01:07:07;;;;;;;9.07;3.63;;;;;;;11.94;44.41;99954.00;4966903;28;20232;-67
2022/05/11 01:09:34;;;;;;;7.20;3.30;;;;;;;11.97;44.27;99957.19;4956607;28;20213;-68
2022/05/11 01:12:02;;;;;;;8.27;3.30;;;;;;;12.00;44.56;99961.34;4968940;28;20231;-69
2022/05/11 01:14:31;;;;;;;14.07;4.07;;;;;;;12.09;43.61;99962.19;4952888;28;20341;-68
2022/05/11 01:16:58;;;;;;;11.47;3.77;;;;;;;12.12;44.44;99965.34;4950040;28;20231;-68
2022/05/11 01:19:29;;;;;;;13.00;3.80;;;;;;;12.12;43.96;99965.34;4954263;28;20220;-68
2022/05/11 01:22:03;;;;;;;13.57;4.03;;;;;;;12.23;43.50;99964.19;4952603;28;20230;-67
2022/05/11 01:24:39;;;;;;;9.60;3.30;;;;;;;12.23;44.09;99961.53;4954189;28;20278;-68
2022/05/11 01:27:38;;;;;;;9.57;3.53;;;;;;;12.24;44.14;99966.69;4948999;28;20305;-67
2022/05/11 01:30:18;;;;;;;9.47;3.70;;;;;;;12.18;43.86;99958.53;4955737;28;20346;-67
2022/05/11 01:32:48;;;;;;;11.33;4.00;;;;;;;12.19;44.22;99953.00;4969510;28;20350;-69
2022/05/11 01:35:36;;;;;;;8.40;3.30;;;;;;;12.22;44.50;99952.69;4950590;28;20226;-67
2022/05/11 01:38:18;;;;;;;7.63;3.67;;;;;;;12.10;44.43;99954.00;4964603;28;20306;-68
2022/05/11 01:40:44;;;;;;;9.13;3.83;;;;;;;12.19;44.10;99942.34;4968186;28;20230;-67
2022/05/11 01:43:33;;;;;;;14.13;3.77;;;;;;;12.19;44.90;99936.19;4966411;28;20239;-68
2022/05/11 01:46:00;;;;;;;10.17;3.80;;;;;;;12.11;44.90;99938.84;4966505;28;20498;-66
2022/05/11 01:48:27;;;;;;;8.90;3.50;;;;;;;11.89;45.58;99927.84;4967940;28;20232;-67
2022/05/11 01:50:54;;;;;;;10.80;3.73;;;;;;;12.01;45.70;99921.19;4938307;28;21082;-68
2022/05/11 01:53:22;;;;;;;10.30;3.70;;;;;;;12.08;45.44;99923.16;4940101;28;20928;-66
2022/05/11 01:55:50;;;;;;;7.13;3.67;;;;;;;11.98;45.65;99918.00;4968295;28;20312;-68
2022/05/11 01:58:17;;;;;;;10.40;4.20;;;;;;;11.86;45.47;99914.81;4962897;28;20289;-68
2022/05/11 02:00:45;;;;;;;14.60;3.70;;;;;;;11.84;46.72;99906.16;4965564;28;20323;-68
2022/05/11 02:03:12;;;;;;;17.80;4.03;;;;;;;11.80;46.04;99900.31;4951589;28;20219;-67
2022/05/11 02:08:26;;;;;;;8.80;3.87;;;;;;;11.77;46.53;99895.31;4965480;28;20310;-68
2022/05/11 02:10:59;;;;;;;9.87;3.90;;;;;;;11.76;46.35;99888.31;4952289;28;20220;-68
2022/05/11 02:13:26;;;;;;;7.87;3.47;;;;;;;11.66;46.71;99881.47;4937126;28;21080;-67
2022/05/11 02:15:52;;;;;;;6.13;3.20;;;;;;;11.60;47.37;99877.66;4967269;28;20302;-68
2022/05/11 02:18:18;;;;;;;9.30;3.73;;;;;;;11.55;47.57;99874.66;4967895;28;20238;-68
2022/05/11 02:20:45;;;;;;;14.90;3.93;;;;;;;11.64;47.45;99868.34;4951285;28;20317;-67
2022/05/11 02:23:14;;;;;;;10.47;3.70;;;;;;;11.63;47.21;99866.66;4963659;28;20283;-68
2022/05/11 02:25:45;;;;;;;10.07;3.83;;;;;;;11.62;47.50;99857.00;4967890;28;20245;-72
2022/05/11 02:28:12;;;;;;;12.80;3.70;;;;;;;11.55;47.00;99854.16;4950677;28;20318;-73
2022/05/11 02:30:39;;;;;;;9.97;3.50;;;;;;;11.72;46.96;99855.00;4968150;28;20230;-73
2022/05/11 02:33:06;;;;;;;11.07;3.50;;;;;;;11.80;46.21;99856.84;4965829;28;20322;-72
2022/05/11 02:35:33;;;;;;;6.77;3.10;;;;;;;11.88;46.05;99854.19;4950680;28;21061;-74
2022/05/11 02:38:02;;;;;;;7.47;3.30;;;;;;;11.93;45.65;99862.50;4949254;28;20219;-73
2022/05/11 02:40:38;;;;;;;10.27;4.03;;;;;;;11.94;45.84;99858.88;4948891;28;20224;-72
2022/05/11 02:43:06;;;;;;;13.83;3.63;;;;;;;11.85;45.97;99857.16;4955242;28;21924;-75
2022/05/11 02:45:34;;;;;;;9.33;3.70;;;;;;;11.79;47.13;99850.66;4966885;28;20759;-74
2022/05/11 02:48:04;;;;;;;8.37;3.53;;;;;;;11.77;46.72;99858.00;4948703;28;22730;-74
2022/05/11 02:50:41;;;;;;;8.60;3.87;;;;;;;11.73;46.52;99862.00;4954285;28;20231;-72
2022/05/11 02:53:08;;;;;;;9.90;3.53;;;;;;;11.73;47.60;99862.00;4965821;28;20727;-73
2022/05/11 02:55:39;;;;;;;11.87;3.77;;;;;;;11.68;47.69;99864.31;4969546;28;20971;-73
2022/05/11 02:58:06;;;;;;;12.83;4.27;;;;;;;11.65;47.51;99863.81;4967893;28;20227;-72
2022/05/11 03:00:35;;;;;;;7.57;3.77;;;;;;;11.65;48.12;99859.31;4967788;28;20272;-73
2022/05/11 03:03:03;;;;;;;10.57;4.10;;;;;;;11.60;47.54;99857.16;4967652;28;20314;-73
2022/05/11 03:05:30;;;;;;;11.03;3.90;;;;;;;11.59;47.83;99850.19;4954701;28;21055;-71
2022/05/11 03:07:57;;;;;;;11.73;3.90;;;;;;;11.59;47.96;99849.34;4950610;28;20239;-72
2022/05/11 03:10:23;;;;;;;15.37;4.00;;;;;;;11.55;47.93;99845.34;4953051;28;20252;-71
2022/05/11 03:12:50;;;;;;;9.83;4.10;;;;;;;11.58;48.38;99842.34;4955248;28;20224;-73
2022/05/11 03:15:17;;;;;;;9.57;3.90;;;;;;;11.65;48.43;99842.50;4952125;28;20220;-72
2022/05/11 03:17:43;;;;;;;11.70;4.10;;;;;;;11.66;47.87;99845.03;4958203;28;20224;-72
2022/05/11 03:20:10;;;;;;;14.00;3.50;;;;;;;11.65;48.35;99832.69;4941483;28;20243;-72
2022/05/11 03:22:37;;;;;;;14.90;3.73;;;;;;;11.59;48.25;99826.19;4953567;28;20232;-72
2022/05/11 03:25:05;;;;;;;11.60;3.73;;;;;;;11.71;47.92;99831.19;4951292;28;20294;-73
2022/05/11 03:27:32;;;;;;;12.80;3.87;;;;;;;11.73;47.38;99826.50;4953847;28;20228;-74
2022/05/11 03:29:59;;;;;;;8.53;3.87;;;;;;;11.75;47.43;99824.50;4956223;28;20354;-72
2022/05/11 03:35:11;;;;;;;9.63;4.23;;;;;;;11.75;47.76;99821.84;4951803;28;20334;-71
2022/05/11 03:37:38;;;;;;;11.57;4.13;;;;;;;11.76;47.78;99819.00;4954162;28;20359;-74
2022/05/11 03:40:07;;;;;;;15.83;4.40;;;;;;;11.76;47.75;99823.53;4951121;28;20260;-73
2022/05/11 03:42:35;;;;;;;13.20;3.90;;;;;;;11.75;48.03;99816.50;4955283;28;20794;-70
2022/05/11 03:45:08;;;;;;;13.43;4.23;;;;;;;11.74;48.83;99813.00;4953334;28;20289;-73
2022/05/11 03:47:35;;;;;;;12.73;3.90;;;;;;;11.81;48.10;99819.34;4935360;28;21215;-73
2022/05/11 03:50:02;;;;;;;15.13;4.17;;;;;;;11.86;47.84;99820.69;4954573;28;20316;-73
2022/05/11 03:52:29;;;;;;;7.00;3.60;;;;;;;11.89;47.61;99818.53;4951408;28;20229;-74
2022/05/11 03:54:56;;;;;;;13.57;4.20;;;;;;;11.94;47.84;99815.34;4949422;28;20696;-74
2022/05/11 03:57:23;;;;;;;10.17;3.60;;;;;;;12.06;47.57;99819.34;4955426;28;20703;-73
2022/05/11 03:59:49;;;;;;;12.17;3.93;;;;;;;12.17;47.13;99815.47;4952831;28;20794;-73
2022/05/11 04:02:16;;;;;;;12.90;3.60;;;;;;;12.17;47.02;99816.31;4951118;28;20283;-74
2022/05/11 04:04:43;;;;;;;12.23;3.57;;;;;;;12.18;46.97;99807.31;4950421;28;20322;-73
2022/05/11 04:07:10;;;;;;;8.27;4.10;;;;;;;12.33;46.66;99817.28;4939303;28;20232;-74
2022/05/11 04:09:36;;;;;;;10.53;3.70;;;;;;;12.35;46.41;99818.75;4937099;28;20811;-73
2022/05/11 04:12:03;;;;;;;10.57;3.97;;;;;;;12.49;46.03;99825.22;4950043;28;20347;-73
2022/05/11 04:14:30;;;;;;;15.00;3.53;;;;;;;12.69;45.20;99814.97;4952708;28;20314;-73
2022/05/11 04:16:59;;;;;;;19.30;3.90;;;;;;;12.81;44.99;99818.09;4952814;28;20318;-72
2022/05/11 04:19:26;;;;;;;17.17;4.53;;;;;;;12.82;45.99;99819.75;4950957;28;20400;-72
2022/05/11 04:21:53;;;;;;;12.13;4.20;;;;;;;12.87;45.63;99820.03;4953363;28;20252;-73
2022/05/11 04:24:20;;;;;;;6.90;3.90;;;;;;;12.88;45.37;99813.72;4951680;28;20235;-73
2022/05/11 04:26:47;;;;;;;13.63;4.57;;;;;;;12.89;45.47;99815.38;4951980;28;20327;-73
2022/05/11 04:29:13;;;;;;;11.87;4.00;;;;;;;12.87;45.95;99810.19;4950440;28;20220;-73
2022/05/11 04:31:40;;;;;;;8.60;3.90;;;;;;;12.86;45.82;99821.06;4950602;28;20319;-70
2022/05/11 04:34:07;;;;;;;9.37;3.90;;;;;;;13.11;46.33;99808.41;4952863;28;20236;-73
2022/05/11 04:36:34;;;;;;;14.80;4.33;;;;;;;13.13;45.57;99805.53;4950268;28;21952;-72
2022/05/11 04:39:00;;;;;;;10.93;4.40;;;;;;;13.29;45.95;99806.28;4951212;28;20748;-73
2022/05/11 04:41:31;;;;;;;9.63;4.07;;;;;;;13.45;45.48;99810.69;4950888;28;20238;-74
2022/05/11 04:43:58;;;;;;;12.70;4.33;;;;;;;13.52;45.24;99808.94;4948750;28;20248;-74
2022/05/11 04:46:24;;;;;;;16.60;3.87;;;;;;;13.47;44.40;99808.66;4947426;28;20328;-75
2022/05/11 04:49:16;;;;;;;9.97;4.30;;;;;;;13.56;44.69;99806.75;4954100;28;20239;-73
2022/05/11 04:51:37;;;;;;;12.07;4.50;;;;;;;13.58;45.17;99803.88;4947300;28;20252;-74
2022/05/11 04:54:04;;;;;;;9.33;4.10;;;;;;;13.71;45.07;99793.44;4932755;28;20258;-74
2022/05/11 04:56:34;;;;;;;16.27;4.57;;;;;;;13.59;45.71;99795.69;4950096;28;20251;-75
2022/05/11 04:59:00;;;;;;;14.50;4.20;;;;;;;13.49;45.92;99806.66;4951002;28;20977;-72
2022/05/11 05:01:27;;;;;;;11.57;4.20;;;;;;;13.53;45.83;99801.75;4952913;28;20223;-72
2022/05/11 05:03:54;;;;;;;12.13;4.00;;;;;;;13.63;45.46;99806.88;4952386;28;20319;-74
2022/05/11 05:06:21;;;;;;;17.27;4.27;;;;;;;13.75;45.51;99796.59;4950677;28;20236;-73
2022/05/11 05:08:52;;;;;;;16.77;4.70;;;;;;;13.79;45.41;99796.03;4968237;28;20679;-75
2022/05/11 05:11:18;;;;;;;13.83;4.37;;;;;;;13.80;45.74;99795.00;4968409;28;20314;-72
2022/05/11 05:13:44;;;;;;;16.47;4.00;;;;;;;13.93;45.24;99797.06;4970032;28;20234;-73
2022/05/11 05:16:11;;;;;;;11.67;4.40;;;;;;;14.04;45.07;99801.97;4968115;28;20864;-74
2022/05/11 05:18:38;;;;;;;15.43;4.67;;;;;;;14.05;45.23;99800.13;4970702;28;20305;-76
2022/05/11 05:21:04;;;;;;;12.63;4.70;;;;;;;14.10;45.50;99800.41;4968934;28;20293;-72
2022/05/11 05:23:31;;;;;;;19.10;5.30;;;;;;;14.06;45.52;99804.47;4968050;28;20306;-74
2022/05/11 05:25:58;;;;;;;16.30;4.90;;;;;;;14.16;45.78;99802.34;4949304;28;20230;-73
2022/05/11 05:31:11;;;;;;;21.90;4.90;;;;;;;14.21;45.74;99805.31;4968556;28;20299;-73
2022/05/11 05:33:41;;;;;;;16.03;4.47;;;;;;;14.31;45.75;99795.16;4969157;28;20338;-73
2022/05/11 05:36:09;;;;;;;19.07;4.83;;;;;;;14.47;45.87;99798.63;4970323;28;20389;-71
2022/05/11 05:38:38;;;;;;;17.17;4.47;;;;;;;14.78;45.01;99791.25;4966982;28;20252;-74
2022/05/11 05:41:06;;;;;;;14.20;4.53;;;;;;;15.05;44.02;99804.94;4934885;28;20330;-74
2022/05/11 05:43:32;;;;;;;16.63;5.13;;;;;;;15.31;44.18;99799.03;4956974;28;20260;-74
2022/05/11 05:45:59;;;;;;;12.70;4.33;;;;;;;15.87;42.64;99806.31;4967170;28;20228;-74
2022/05/11 05:48:26;;;;;;;11.87;4.57;;;;;;;16.49;40.43;99814.59;4967963;28;20370;-73
2022/05/11 05:50:53;;;;;;;17.20;4.77;;;;;;;16.69;40.08;99820.84;4952140;28;20331;-75
2022/05/11 05:53:21;;;;;;;19.03;4.47;;;;;;;17.20;39.51;99812.38;4949055;28;20319;-74
2022/05/11 05:55:49;;;;;;;16.60;4.87;;;;;;;17.75;37.61;99814.94;4950331;28;20239;-69
2022/05/11 05:58:16;;;;;;;16.97;4.67;;;;;;;17.88;37.89;99816.81;4949452;28;20749;-71
2022/05/11 06:00:43;;;;;;;14.27;4.47;;;;;;;18.14;37.24;99822.19;4954929;28;20357;-66
2022/05/11 06:03:12;;;;;;;20.50;5.40;;;;;;;18.35;36.60;99817.56;4967715;28;20232;-67
2022/05/11 06:05:39;;;;;;;21.73;4.30;;;;;;;18.42;36.88;99815.69;4955426;28;20331;-67
2022/05/11 06:08:08;;;;;;;20.87;4.93;;;;;;;18.85;35.51;99819.75;4945114;28;20283;-69
2022/05/11 06:10:39;;;;;;;16.03;4.33;;;;;;;19.47;34.37;99828.09;4947858;28;20232;-67
2022/05/11 06:13:07;;;;;;;19.93;3.93;;;;;;;20.01;33.28;99835.56;4947129;28;20470;-68
2022/05/11 06:15:35;;;;;;;15.20;4.77;;;;;;;20.02;33.57;99831.84;4950108;28;20690;-69
2022/05/11 06:18:02;;;;;;;21.77;4.53;;;;;;;20.29;33.04;99836.97;4947354;28;20881;-68
2022/05/11 06:20:28;;;;;;;13.77;4.13;;;;;;;20.75;31.80;99842.97;4948420;28;20244;-69
2022/05/11 06:22:59;;;;;;;18.07;4.40;;;;;;;20.98;31.44;99845.81;4930428;28;20279;-68
2022/05/11 06:25:26;;;;;;;15.50;4.50;;;;;;;21.19;31.47;99847.19;4944668;28;20656;-65
2022/05/11 06:27:52;;;;;;;15.27;4.57;;;;;;;21.30;31.45;99850.97;4945679;28;20235;-70
2022/05/11 06:30:19;;;;;;;24.77;4.80;;;;;;;21.55;31.11;99852.75;4946068;28;20228;-71
2022/05/11 06:32:45;;;;;;;26.20;5.07;;;;;;;21.86;30.78;99846.22;4945762;28;20229;-70
2022/05/11 06:35:12;;;;;;;17.17;4.43;;;;;;;22.56;29.48;99850.81;4947926;28;20228;-69
2022/05/11 06:37:42;;;;;;;16.97;5.13;;;;;;;22.69;29.02;99847.88;4947383;28;20283;-69
2022/05/11 06:40:14;;;;;;;19.30;4.87;;;;;;;22.95;28.68;99851.91;4935109;28;20237;-71
2022/05/11 06:42:42;;;;;;;16.40;4.17;;;;;;;23.26;28.43;99849.00;4935655;28;20376;-71
2022/05/11 06:45:10;;;;;;;14.77;4.68;;;;;;;23.95;27.58;99846.97;4948709;28;20382;-70
2022/05/11 06:47:37;;;;;;;13.55;4.32;;;;;;;24.30;26.82;99848.56;4945064;28;20319;-69
2022/05/11 06:50:04;;;;;;;11.90;4.27;;;;;;;24.84;26.41;99856.13;4946200;28;20303;-68
2022/05/11 06:52:31;;;;;;;14.53;4.77;;;;;;;25.05;25.57;99852.59;4943595;28;20239;-69
2022/05/11 07:00:50;;;;;;;19.33;4.50;;;;;;;26.90;23.35;99851.31;4869118;29;20312;-70
2022/05/11 07:03:17;;;;;;;11.77;4.30;;;;;;;26.63;23.66;99846.03;4918138;28;20239;-70
2022/05/11 07:05:45;;;;;;;16.33;4.43;;;;;;;26.79;23.70;99849.66;4948093;28;20247;-71
2022/05/11 07:08:11;;;;;;;12.95;4.60;;;;;;;26.93;23.23;99846.16;4965061;28;20230;-70
2022/05/11 07:10:39;;;;;;;12.17;4.50;;;;;;;27.21;23.07;99848.75;4965536;28;20364;-69
2022/05/11 07:13:05;;;;;;;15.82;4.57;;;;;;;28.12;21.97;99853.47;4937762;28;20238;-69
2022/05/11 07:15:32;;;;;;;17.70;5.20;;;;;;;27.96;21.89;99841.72;4965028;28;20226;-69
2022/05/11 07:17:59;;;;;;;21.20;4.82;;;;;;;28.16;21.88;99851.78;4946950;28;20224;-68
2022/05/11 07:20:36;;;;;;;17.50;4.45;;;;;;;28.52;21.38;99848.22;4947097;28;20219;-69
2022/05/11 07:23:05;;;;;;;14.63;4.75;;;;;;;29.28;21.06;99849.78;4966761;28;20235;-67
2022/05/11 07:25:32;;;;;;;15.32;4.68;;;;;;;28.38;21.81;99829.59;4949481;28;20240;-69
2022/05/11 07:28:00;;;;;;;20.23;4.32;;;;;;;28.20;22.07;99833.72;4948734;28;20328;-66
2022/05/11 07:30:30;;;;;;;16.77;4.80;;;;;;;28.76;21.64;99827.28;4965278;28;20216;-70
2022/05/11 07:33:04;;;;;;;17.73;4.95;;;;;;;28.33;22.10;99828.78;4964352;28;20219;-69
2022/05/11 07:35:31;;;;;;;16.83;4.65;;;;;;;27.00;24.04;99817.78;4965556;28;20224;-76
2022/05/11 07:37:59;;;;;;;17.73;5.20;;;;;;;25.93;25.19;99810.66;4965194;28;20412;-68
2022/05/11 07:40:26;;;;;;;18.13;4.65;;;;;;;25.16;26.97;99801.78;4964238;28;20312;-74
2022/05/11 07:42:54;;;;;;;24.13;5.03;;;;;;;25.04;27.31;99798.38;4933191;28;20248;-74
2022/05/11 07:45:23;;;;;;;12.98;4.82;;;;;;;25.19;27.66;99795.00;4966615;28;20220;-76
2022/05/11 07:47:50;;;;;;;17.25;4.43;;;;;;;25.53;27.24;99792.88;4933481;28;20231;-75
2022/05/11 07:50:17;;;;;;;13.80;4.03;;;;;;;25.42;27.01;99783.78;4955017;28;20704;-71
2022/05/11 07:52:44;;;;;;;13.73;4.72;;;;;;;25.13;27.84;99783.22;4969879;28;21623;-67
2022/05/11 07:55:15;;;;;;;22.73;4.65;;;;;;;24.77;28.19;99777.41;4951465;28;20227;-69
2022/05/11 08:00:27;;;;;;;21.38;4.80;;;;;;;24.84;28.84;99783.47;4969034;28;20819;-70
2022/05/11 08:02:59;;;;;;;17.90;4.83;;;;;;;25.18;28.53;99777.84;4949609;28;20540;-69
2022/05/11 08:05:26;;;;;;;16.98;4.50;;;;;;;25.15;28.27;99772.09;4968104;28;20243;-67
2022/05/11 08:07:58;;;;;;;14.95;4.68;;;;;;;24.94;28.58;99769.16;4965865;28;20307;-66
2022/05/11 08:10:29;;;;;;;19.38;4.80;;;;;;;25.23;28.67;99772.47;4959715;28;20255;-66
2022/05/11 08:13:00;;;;;;;22.70;4.90;;;;;;;25.25;28.64;99773.03;4953809;28;20223;-66
2022/05/11 08:15:28;;;;;;;22.57;4.83;;;;;;;25.15;28.52;99769.38;4952539;28;20259;-66
2022/05/11 08:17:57;;;;;;;18.23;4.27;;;;;;;25.04;28.84;99771.97;4954430;28;20224;-73
2022/05/11 08:20:29;;;;;;;15.90;4.23;;;;;;;24.71;29.95;99766.72;4968677;28;20232;-65
2022/05/11 08:22:57;;;;;;;22.73;3.93;;;;;;;24.89;29.29;99771.81;4954541;28;20329;-74
2022/05/11 08:25:27;;;;;;;18.17;4.63;;;;;;;24.80;29.56;99771.44;4957373;28;20655;-69
2022/05/11 08:27:59;;;;;;;19.77;4.73;;;;;;;24.73;29.49;99765.38;4956328;28;20379;-67
2022/05/11 08:33:19;;;;;;;21.27;5.17;;;;;;;24.75;30.10;99763.25;4957313;28;21481;-67
2022/05/11 08:36:10;;;;;;;16.17;4.90;;;;;;;25.07;30.29;99767.91;4954137;28;20226;-69
2022/05/11 08:38:39;;;;;;;19.33;5.00;;;;;;;25.45;29.52;99771.56;4967007;28;20670;-66
2022/05/11 08:41:14;;;;;;;25.00;4.40;;;;;;;25.61;29.19;99781.50;4952515;28;20306;-68
2022/05/11 08:43:41;;;;;;;27.55;4.97;;;;;;;25.53;29.04;99776.53;4952196;28;20231;-67
2022/05/11 08:46:20;;;;;;;13.80;4.67;;;;;;;25.59;29.27;99766.50;4950190;28;20220;-68
2022/05/11 08:48:59;;;;;;;22.97;4.63;;;;;;;25.26;30.58;99777.41;4952527;28;20710;-70
2022/05/11 08:51:46;;;;;;;14.17;4.50;;;;;;;24.74;30.79;99767.03;4937638;28;20246;-68
2022/05/11 08:54:18;;;;;;;17.38;4.88;;;;;;;25.43;30.62;99774.56;4948525;28;20235;-66
2022/05/11 08:56:46;;;;;;;16.70;4.17;;;;;;;25.79;30.01;99771.28;4951868;28;20799;-67
2022/05/11 08:59:23;;;;;;;20.87;5.03;;;;;;;26.28;28.42;99782.78;4934889;28;21089;-66
2022/05/11 09:01:58;;;;;;;17.20;4.40;;;;;;;26.05;29.10;99770.38;4954803;28;20473;-68
2022/05/11 09:04:40;;;;;;;11.02;3.85;;;;;;;25.90;29.02;99762.13;4967986;28;20220;-67
2022/05/11 09:07:09;;;;;;;17.90;4.70;;;;;;;25.78;30.19;99753.28;4952968;28;20298;-67
2022/05/11 09:09:37;;;;;;;15.65;4.30;;;;;;;25.95;28.71;99756.69;4966327;28;20234;-67
2022/05/11 09:12:05;;;;;;;17.00;4.77;;;;;;;25.90;29.23;99752.03;4967646;28;20311;-67
2022/05/11 09:14:39;;;;;;;20.75;5.00;;;;;;;25.65;29.74;99754.56;4951212;28;20776;-68
2022/05/11 09:17:26;;;;;;;13.30;3.83;;;;;;;25.85;29.62;99754.72;4939302;28;20335;-68
2022/05/11 09:20:05;;;;;;;12.13;4.53;;;;;;;25.12;31.35;99758.97;4966948;28;20230;-67
2022/05/11 09:22:37;;;;;;;12.90;3.97;;;;;;;25.17;30.60;99762.59;4946786;28;20319;-67
2022/05/11 09:25:28;;;;;;;9.73;4.17;;;;;;;25.19;31.81;99762.34;4964601;28;20617;-68
2022/05/11 09:28:12;;;;;;;15.20;4.05;;;;;;;25.69;30.51;99761.13;4943678;28;20289;-67
2022/05/11 09:30:41;;;;;;;22.13;4.70;;;;;;;25.81;30.83;99761.75;4966195;28;20223;-67
2022/05/11 09:33:23;;;;;;;14.68;4.72;;;;;;;25.85;30.97;99764.78;4950019;28;20318;-68
2022/05/11 09:35:49;;;;;;;11.80;3.97;;;;;;;25.57;30.67;99758.59;4952119;28;20235;-67
2022/05/11 09:38:34;;;;;;;11.82;4.05;;;;;;;25.46;30.70;99756.88;4949707;28;20234;-68
2022/05/11 09:41:21;;;;;;;12.23;3.60;;;;;;;25.49;30.51;99761.78;4963457;28;20247;-67
2022/05/11 09:43:58;;;;;;;14.37;3.80;;;;;;;25.25;31.05;99761.31;4954483;28;20223;-68
2022/05/11 09:46:29;;;;;;;10.37;3.73;;;;;;;25.10;31.23;99763.84;4954614;28;20228;-68
2022/05/11 09:49:05;;;;;;;15.50;3.88;;;;;;;25.17;31.30;99761.75;4962721;28;20347;-65
2022/05/11 09:51:36;;;;;;;14.20;4.15;;;;;;;24.73;32.25;99757.22;4952930;28;20220;-67
2022/05/11 09:54:18;;;;;;;9.20;3.43;;;;;;;24.90;31.38;99748.16;4965466;28;20294;-66
2022/05/11 09:56:49;;;;;;;11.45;3.92;;;;;;;24.80;32.02;99746.97;4966884;28;20223;-66
2022/05/11 09:59:33;;;;;;;8.40;3.63;;;;;;;25.10;31.68;99747.50;4962488;28;20247;-66
2022/05/11 10:02:12;;;;;;;11.47;3.97;;;;;;;25.51;30.75;99731.56;4967050;28;20235;-67
2022/05/11 10:04:44;;;;;;;15.27;3.90;;;;;;;25.68;30.38;99737.69;4964105;28;20315;-69
2022/05/11 10:07:13;;;;;;;12.17;4.07;;;;;;;25.55;31.25;99738.97;4946239;28;20228;-65
2022/05/11 10:09:43;;;;;;;18.73;4.33;;;;;;;25.10;32.34;99732.03;4948505;28;20228;-66
2022/05/11 10:12:15;;;;;;;10.07;4.13;;;;;;;25.36;31.21;99724.91;4944277;28;20719;-67
2022/05/11 10:23:41;;;;;;;12.43;4.27;;;;;;;26.25;28.97;99726.06;4948974;28;20618;-70
2022/05/11 10:26:14;;;;;;;10.75;3.70;;;;;;;26.25;28.42;99722.50;4952262;28;20235;-66
2022/05/11 10:29:10;;;;;;;10.43;3.70;;;;;;;26.55;28.13;99724.56;4949100;28;20239;-67
2022/05/11 10:31:42;;;;;;;11.45;3.90;;;;;;;26.51;28.17;99723.41;4947250;28;20231;-66
2022/05/11 10:34:29;;;;;;;12.23;3.58;;;;;;;26.61;28.11;99722.66;4943586;28;20232;-66
2022/05/11 10:37:22;;;;;;;11.73;3.60;;;;;;;26.46;28.52;99726.94;4929410;28;20369;-66
2022/05/11 10:40:00;;;;;;;10.15;4.10;;;;;;;26.59;28.65;99722.91;4946446;28;20221;-66
2022/05/11 10:42:36;;;;;;;9.93;3.93;;;;;;;26.41;28.72;99713.31;4945276;28;20311;-69
2022/05/11 10:45:21;;;;;;;14.38;3.90;;;;;;;26.35;29.84;99708.09;4947268;28;20224;-66
2022/05/11 10:47:51;;;;;;;10.82;3.70;;;;;;;26.39;30.71;99712.75;4946167;28;20307;-74
2022/05/11 10:50:29;;;;;;;9.23;3.93;;;;;;;26.86;29.05;99713.72;4959880;28;20254;-69
2022/05/11 10:53:33;;;;;;;17.05;4.30;;;;;;;26.89;28.84;99708.53;4946205;28;20322;-66
2022/05/11 10:56:06;;;;;;;10.25;4.22;;;;;;;27.23;28.51;99709.94;4942207;28;21264;-67
2022/05/11 10:58:59;;;;;;;13.80;4.25;;;;;;;27.27;28.59;99709.13;4947311;28;21132;-67
2022/05/11 11:02:10;;;;;;;10.05;4.20;;;;;;;26.34;30.12;99693.63;4928808;28;20251;-67
2022/05/11 11:04:57;;;;;;;13.23;4.38;;;;;;;26.48;30.17;99691.19;4926986;28;20251;-67
2022/05/11 11:07:31;;;;;;;11.70;4.15;;;;;;;26.81;29.77;99687.22;4957557;28;20243;-68
2022/05/11 11:10:25;;;;;;;10.50;3.80;;;;;;;26.62;30.26;99681.47;4946840;28;20734;-68
2022/05/11 11:13:20;;;;;;;10.47;3.83;;;;;;;27.02;29.22;99695.41;4945093;28;20687;-69
2022/05/11 11:15:47;;;;;;;12.52;4.13;;;;;;;27.19;28.16;99687.78;4948937;28;20274;-69
2022/05/11 11:18:34;;;;;;;19.88;4.95;;;;;;;27.34;27.90;99687.00;4965381;28;20410;-70
2022/05/11 11:21:02;;;;;;;12.70;3.58;;;;;;;27.26;27.54;99682.09;4957981;28;20636;-69
2022/05/11 11:23:32;;;;;;;18.52;4.22;;;;;;;27.01;27.96;99680.94;4954011;28;20327;-71
2022/05/11 11:26:13;;;;;;;6.95;3.33;;;;;;;26.69;28.74;99668.38;4947955;28;20896;-71
2022/05/11 11:28:39;;;;;;;8.67;3.20;;;;;;;26.81;28.22;99665.38;4966018;28;20243;-71
2022/05/11 11:31:09;;;;;;;10.75;3.67;;;;;;;27.03;27.99;99665.13;4965215;28;20250;-70
2022/05/11 11:33:56;;;;;;;10.10;3.38;;;;;;;26.62;28.46;99665.09;4966921;28;20449;-62
2022/05/11 11:36:28;;;;;;;14.17;3.57;;;;;;;26.57;29.03;99661.50;4970596;28;20215;-67
2022/05/11 11:38:58;;;;;;;10.10;4.05;;;;;;;26.97;27.66;99657.19;4969177;28;20227;-68
2022/05/11 11:41:52;;;;;;;7.47;3.72;;;;;;;26.53;29.39;99653.84;4935703;28;20227;-67
2022/05/11 11:44:20;;;;;;;6.85;3.75;;;;;;;26.55;29.82;99656.34;4968848;28;20306;-67
2022/05/11 11:46:48;;;;;;;11.50;3.75;;;;;;;26.72;28.35;99648.72;4966942;28;20235;-68
2022/05/11 11:49:18;;;;;;;10.82;3.90;;;;;;;26.49;28.92;99651.91;4966185;28;20231;-70
2022/05/11 11:51:52;;;;;;;11.90;3.80;;;;;;;26.17;29.17;99652.09;4970429;28;20243;-68
2022/05/11 11:54:37;;;;;;;8.93;4.07;;;;;;;26.29;29.09;99647.22;4949608;28;20227;-68
2022/05/11 11:57:16;;;;;;;9.03;3.47;;;;;;;26.26;29.65;99645.84;4968132;28;20246;-67
2022/05/11 12:00:25;;;;;;;8.05;3.70;;;;;;;26.12;30.42;99647.44;4964861;28;20324;-68
2022/05/11 12:02:53;;;;;;;9.67;3.73;;;;;;;26.28;29.67;99642.88;4951418;28;20270;-66
2022/05/11 12:05:37;;;;;;;16.00;4.50;;;;;;;26.33;30.82;99640.16;4950901;28;20298;-69
2022/05/11 12:17:10;;;;;;;8.00;3.55;;;;;;;26.06;31.02;99635.72;4948037;28;20254;-67
2022/05/11 12:19:38;;;;;;;7.97;4.20;;;;;;;26.04;32.00;99626.97;4949854;28;20224;-68
2022/05/11 12:22:19;;;;;;;18.80;5.68;;;;;;;26.31;31.15;99623.22;4950634;28;20658;-69